sensor_id;sensor_type;location;lat;lon;timestamp;pressure;altitude;pressure_sealevel;temperature;humidity
30554;BME280;17335;50.720;7.452;2023-06-10T00:00:05;99056.59;;;17.72;100.00
30554;BME280;17335;50.720;7.452;2023-06-10T00:02:33;99058.38;;;17.58;100.00
30554;BME280;17335;50.720;7.452;2023-06-10T00:04:59;99065.25;;;17.54;100.00
30554;BME280;17335;50.720;7.452;2023-06-10T00:07:26;99070.19;;;17.44;100.00
30554;BME280;17335;50.720;7.452;2023-06-10T00:09:53;99062.63;;;17.39;100.00
30554;BME280;17335;50.720;7.452;2023-06-10T00:12:19;99068.41;;;17.30;100.00
30554;BME280;17335;50.720;7.452;2023-06-10T00:14:46;99064.75;;;17.22;100.00
30554;BME280;17335;50.720;7.452;2023-06-10T00:17:14;99068.66;;;17.13;100.00
30554;BME280;17335;50.720;7.452;2023-06-10T00:19:41;99065.28;;;17.11;100.00
30554;BME280;17335;50.720;7.452;2023-06-10T00:22:08;99067.19;;;17.11;100.00
30554;BME280;17335;50.720;7.452;2023-06-10T00:24:37;99071.09;;;17.08;100.00
30554;BME280;17335;50.720;7.452;2023-06-10T00:27:04;99066.72;;;17.07;100.00
30554;BME280;17335;50.720;7.452;2023-06-10T00:29:31;99066.25;;;17.03;100.00
30554;BME280;17335;50.720;7.452;2023-06-10T00:31:58;99070.00;;;17.02;100.00
30554;BME280;17335;50.720;7.452;2023-06-10T00:34:25;99067.88;;;16.98;100.00
30554;BME280;17335;50.720;7.452;2023-06-10T00:36:51;99064.44;;;16.89;100.00
30554;BME280;17335;50.720;7.452;2023-06-10T00:39:18;99075.19;;;16.82;100.00
30554;BME280;17335;50.720;7.452;2023-06-10T00:41:45;99079.50;;;16.77;100.00
30554;BME280;17335;50.720;7.452;2023-06-10T00:44:11;99079.25;;;16.72;100.00
30554;BME280;17335;50.720;7.452;2023-06-10T00:46:38;99078.78;;;16.68;100.00
30554;BME280;17335;50.720;7.452;2023-06-10T00:49:05;99076.63;;;16.63;100.00
30554;BME280;17335;50.720;7.452;2023-06-10T00:51:32;99078.25;;;16.58;100.00
30554;BME280;17335;50.720;7.452;2023-06-10T00:53:59;99085.28;;;16.52;100.00
30554;BME280;17335;50.720;7.452;2023-06-10T00:56:25;99083.50;;;16.44;100.00
30554;BME280;17335;50.720;7.452;2023-06-10T00:58:53;99080.88;;;16.36;100.00
30554;BME280;17335;50.720;7.452;2023-06-10T01:01:19;99081.66;;;16.30;100.00
30554;BME280;17335;50.720;7.452;2023-06-10T01:03:46;99083.22;;;16.24;100.00
30554;BME280;17335;50.720;7.452;2023-06-10T01:08:54;99084.72;;;16.12;100.00
30554;BME280;17335;50.720;7.452;2023-06-10T01:11:25;99082.22;;;16.10;100.00
30554;BME280;17335;50.720;7.452;2023-06-10T01:13:55;99081.66;;;16.00;100.00
30554;BME280;17335;50.720;7.452;2023-06-10T01:16:22;99091.81;;;15.98;100.00
30554;BME280;17335;50.720;7.452;2023-06-10T01:18:48;99092.19;;;15.95;100.00
30554;BME280;17335;50.720;7.452;2023-06-10T01:21:22;99092.31;;;15.87;100.00
30554;BME280;17335;50.720;7.452;2023-06-10T01:23:54;99093.41;;;15.78;100.00
30554;BME280;17335;50.720;7.452;2023-06-10T01:26:28;99089.31;;;15.82;100.00
30554;BME280;17335;50.720;7.452;2023-06-10T01:29:00;99092.44;;;15.70;100.00
30554;BME280;17335;50.720;7.452;2023-06-10T01:31:38;99087.38;;;15.67;100.00
30554;BME280;17335;50.720;7.452;2023-06-10T01:34:10;99096.91;;;15.63;100.00
30554;BME280;17335;50.720;7.452;2023-06-10T01:36:40;99104.38;;;15.61;100.00
30554;BME280;17335;50.720;7.452;2023-06-10T01:39:08;99088.13;;;15.61;100.00
30554;BME280;17335;50.720;7.452;2023-06-10T01:41:37;99099.31;;;15.58;100.00
30554;BME280;17335;50.720;7.452;2023-06-10T01:44:04;99093.25;;;15.56;100.00
30554;BME280;17335;50.720;7.452;2023-06-10T01:46:30;99097.97;;;15.54;100.00
30554;BME280;17335;50.720;7.452;2023-06-10T01:48:57;99092.56;;;15.54;100.00
30554;BME280;17335;50.720;7.452;2023-06-10T01:51:24;99094.25;;;15.55;100.00
30554;BME280;17335;50.720;7.452;2023-06-10T01:53:50;99090.53;;;15.56;100.00
30554;BME280;17335;50.720;7.452;2023-06-10T01:56:17;99095.28;;;15.54;100.00
30554;BME280;17335;50.720;7.452;2023-06-10T01:58:46;99093.53;;;15.61;100.00
30554;BME280;17335;50.720;7.452;2023-06-10T02:01:13;99092.50;;;15.62;100.00
30554;BME280;17335;50.720;7.452;2023-06-10T02:03:40;99087.44;;;15.59;100.00
30554;BME280;17335;50.720;7.452;2023-06-10T02:06:07;99098.25;;;15.59;100.00
30554;BME280;17335;50.720;7.452;2023-06-10T02:08:33;99095.09;;;15.55;100.00
30554;BME280;17335;50.720;7.452;2023-06-10T02:11:20;99086.16;;;15.55;100.00
30554;BME280;17335;50.720;7.452;2023-06-10T02:13:46;99093.31;;;15.48;100.00
30554;BME280;17335;50.720;7.452;2023-06-10T02:16:13;99103.97;;;15.49;100.00
30554;BME280;17335;50.720;7.452;2023-06-10T02:18:41;99101.59;;;15.46;100.00
30554;BME280;17335;50.720;7.452;2023-06-10T02:21:09;99105.16;;;15.47;100.00
30554;BME280;17335;50.720;7.452;2023-06-10T02:23:36;99108.03;;;15.45;100.00
30554;BME280;17335;50.720;7.452;2023-06-10T02:26:03;99104.03;;;15.41;100.00
30554;BME280;17335;50.720;7.452;2023-06-10T02:28:29;99108.94;;;15.37;100.00
30554;BME280;17335;50.720;7.452;2023-06-10T02:30:56;99109.78;;;15.38;100.00
30554;BME280;17335;50.720;7.452;2023-06-10T02:33:23;99104.94;;;15.33;100.00
30554;BME280;17335;50.720;7.452;2023-06-10T02:35:50;99102.59;;;15.30;100.00
30554;BME280;17335;50.720;7.452;2023-06-10T02:38:16;99096.22;;;15.23;100.00
30554;BME280;17335;50.720;7.452;2023-06-10T02:40:43;99109.44;;;15.18;100.00
30554;BME280;17335;50.720;7.452;2023-06-10T02:43:09;99109.50;;;15.10;100.00
30554;BME280;17335;50.720;7.452;2023-06-10T02:45:36;99112.56;;;15.07;100.00
30554;BME280;17335;50.720;7.452;2023-06-10T02:48:02;99108.84;;;15.08;100.00
30554;BME280;17335;50.720;7.452;2023-06-10T02:50:29;99112.09;;;15.03;100.00
30554;BME280;17335;50.720;7.452;2023-06-10T02:52:56;99108.84;;;15.08;100.00
30554;BME280;17335;50.720;7.452;2023-06-10T02:55:22;99103.06;;;15.11;100.00
30554;BME280;17335;50.720;7.452;2023-06-10T02:57:53;99093.69;;;15.45;100.00
30554;BME280;17335;50.720;7.452;2023-06-10T03:00:20;99093.53;;;15.61;100.00
30554;BME280;17335;50.720;7.452;2023-06-10T03:02:48;99086.91;;;15.64;100.00
30554;BME280;17335;50.720;7.452;2023-06-10T03:05:15;99085.78;;;15.58;100.00
30554;BME280;17335;50.720;7.452;2023-06-10T03:07:43;99093.59;;;15.53;100.00
30554;BME280;17335;50.720;7.452;2023-06-10T03:10:09;99086.72;;;15.65;100.00
30554;BME280;17335;50.720;7.452;2023-06-10T03:12:36;99088.78;;;15.63;100.00
30554;BME280;17335;50.720;7.452;2023-06-10T03:15:03;99097.97;;;15.54;100.00
30554;BME280;17335;50.720;7.452;2023-06-10T03:17:30;99089.03;;;15.53;100.00
30554;BME280;17335;50.720;7.452;2023-06-10T03:19:56;99083.91;;;15.59;100.00
30554;BME280;17335;50.720;7.452;2023-06-10T03:22:22;99099.56;;;15.48;100.00
30554;BME280;17335;50.720;7.452;2023-06-10T03:24:49;99089.66;;;15.41;100.00
30554;BME280;17335;50.720;7.452;2023-06-10T03:27:17;99097.66;;;15.34;100.00
30554;BME280;17335;50.720;7.452;2023-06-10T03:29:44;99099.22;;;15.28;100.00
30554;BME280;17335;50.720;7.452;2023-06-10T03:32:11;99106.66;;;15.26;100.00
30554;BME280;17335;50.720;7.452;2023-06-10T03:34:37;99108.06;;;15.22;100.00
30554;BME280;17335;50.720;7.452;2023-06-10T03:37:05;99107.41;;;15.20;100.00
30554;BME280;17335;50.720;7.452;2023-06-10T03:39:32;99112.81;;;15.20;100.00
30554;BME280;17335;50.720;7.452;2023-06-10T03:41:58;99114.84;;;15.18;100.00
30554;BME280;17335;50.720;7.452;2023-06-10T03:44:25;99118.75;;;15.15;100.00
30554;BME280;17335;50.720;7.452;2023-06-10T03:46:52;99125.00;;;15.16;100.00
30554;BME280;17335;50.720;7.452;2023-06-10T03:49:19;99119.22;;;15.19;100.00
30554;BME280;17335;50.720;7.452;2023-06-10T03:51:46;99121.94;;;15.19;100.00
30554;BME280;17335;50.720;7.452;2023-06-10T03:54:12;99120.28;;;15.18;100.00
30554;BME280;17335;50.720;7.452;2023-06-10T03:56:39;99114.94;;;15.25;100.00
30554;BME280;17335;50.720;7.452;2023-06-10T03:59:05;99121.22;;;15.25;100.00
30554;BME280;17335;50.720;7.452;2023-06-10T04:01:32;99120.19;;;15.26;100.00
30554;BME280;17335;50.720;7.452;2023-06-10T04:03:59;99120.38;;;15.25;100.00
30554;BME280;17335;50.720;7.452;2023-06-10T04:06:27;99122.88;;;15.26;100.00
30554;BME280;17335;50.720;7.452;2023-06-10T04:08:55;99127.94;;;15.29;100.00
30554;BME280;17335;50.720;7.452;2023-06-10T04:11:25;99122.34;;;15.31;100.00
30554;BME280;17335;50.720;7.452;2023-06-10T04:13:52;99128.59;;;15.31;100.00
30554;BME280;17335;50.720;7.452;2023-06-10T04:16:20;99133.00;;;15.32;100.00
30554;BME280;17335;50.720;7.452;2023-06-10T04:18:47;99132.25;;;15.38;100.00
30554;BME280;17335;50.720;7.452;2023-06-10T04:21:13;99130.41;;;15.39;100.00
30554;BME280;17335;50.720;7.452;2023-06-10T04:23:40;99129.19;;;15.42;100.00
30554;BME280;17335;50.720;7.452;2023-06-10T04:26:07;99133.72;;;15.49;100.00
30554;BME280;17335;50.720;7.452;2023-06-10T04:28:34;99130.81;;;15.51;100.00
30554;BME280;17335;50.720;7.452;2023-06-10T04:31:02;99127.09;;;15.52;100.00
30554;BME280;17335;50.720;7.452;2023-06-10T04:33:30;99138.84;;;15.59;100.00
30554;BME280;17335;50.720;7.452;2023-06-10T04:35:57;99138.69;;;15.61;100.00
30554;BME280;17335;50.720;7.452;2023-06-10T04:38:24;99141.03;;;15.64;100.00
30554;BME280;17335;50.720;7.452;2023-06-10T04:40:51;99136.94;;;15.68;100.00
30554;BME280;17335;50.720;7.452;2023-06-10T04:43:17;99142.84;;;15.71;100.00
30554;BME280;17335;50.720;7.452;2023-06-10T04:45:44;99148.47;;;15.85;100.00
30554;BME280;17335;50.720;7.452;2023-06-10T04:48:11;99143.63;;;15.95;100.00
30554;BME280;17335;50.720;7.452;2023-06-10T04:50:37;99138.53;;;16.15;100.00
30554;BME280;17335;50.720;7.452;2023-06-10T04:53:05;99131.94;;;16.99;100.00
30554;BME280;17335;50.720;7.452;2023-06-10T04:55:32;99109.84;;;19.46;100.00
30554;BME280;17335;50.720;7.452;2023-06-10T04:58:00;99100.19;;;21.97;100.00
30554;BME280;17335;50.720;7.452;2023-06-10T05:00:26;99088.81;;;23.76;100.00
30554;BME280;17335;50.720;7.452;2023-06-10T05:02:53;99082.94;;;24.96;100.00
30554;BME280;17335;50.720;7.452;2023-06-10T05:05:20;99087.38;;;25.43;92.25
30554;BME280;17335;50.720;7.452;2023-06-10T05:07:47;99079.31;;;25.53;90.66
30554;BME280;17335;50.720;7.452;2023-06-10T05:10:14;99083.06;;;25.98;87.30
30554;BME280;17335;50.720;7.452;2023-06-10T05:12:41;99085.31;;;25.84;87.32
30554;BME280;17335;50.720;7.452;2023-06-10T05:15:08;99081.28;;;25.75;90.08
30554;BME280;17335;50.720;7.452;2023-06-10T05:17:35;99088.47;;;25.59;90.31
30554;BME280;17335;50.720;7.452;2023-06-10T05:20:02;99094.16;;;24.95;98.37
30554;BME280;17335;50.720;7.452;2023-06-10T05:22:29;99083.22;;;24.83;100.00
30554;BME280;17335;50.720;7.452;2023-06-10T05:24:55;99090.03;;;24.80;100.00
30554;BME280;17335;50.720;7.452;2023-06-10T05:27:22;99093.00;;;24.79;100.00
30554;BME280;17335;50.720;7.452;2023-06-10T05:29:48;99096.44;;;24.33;100.00
30554;BME280;17335;50.720;7.452;2023-06-10T05:32:16;99102.66;;;24.29;100.00
30554;BME280;17335;50.720;7.452;2023-06-10T05:34:45;99096.56;;;24.39;100.00
30554;BME280;17335;50.720;7.452;2023-06-10T05:37:12;99097.03;;;24.36;100.00
30554;BME280;17335;50.720;7.452;2023-06-10T05:39:40;99093.94;;;24.20;100.00
30554;BME280;17335;50.720;7.452;2023-06-10T05:42:07;99094.66;;;24.27;100.00
30554;BME280;17335;50.720;7.452;2023-06-10T05:44:34;99096.94;;;24.19;100.00
30554;BME280;17335;50.720;7.452;2023-06-10T05:47:00;99100.97;;;24.40;100.00
30554;BME280;17335;50.720;7.452;2023-06-10T05:49:28;99101.59;;;24.82;100.00
30554;BME280;17335;50.720;7.452;2023-06-10T05:51:54;99091.31;;;24.89;95.71
30554;BME280;17335;50.720;7.452;2023-06-10T05:54:22;99101.91;;;24.69;97.01
30554;BME280;17335;50.720;7.452;2023-06-10T05:56:49;99095.34;;;24.99;100.00
30554;BME280;17335;50.720;7.452;2023-06-10T05:59:15;99105.97;;;24.95;98.82
30554;BME280;17335;50.720;7.452;2023-06-10T06:01:42;99098.81;;;25.23;100.00
30554;BME280;17335;50.720;7.452;2023-06-10T06:04:08;99100.78;;;25.39;100.00
30554;BME280;17335;50.720;7.452;2023-06-10T06:06:38;99100.97;;;25.50;100.00
30554;BME280;17335;50.720;7.452;2023-06-10T06:09:05;99096.97;;;25.57;100.00
30554;BME280;17335;50.720;7.452;2023-06-10T06:11:31;99089.53;;;25.58;95.80
30554;BME280;17335;50.720;7.452;2023-06-10T06:13:58;99095.28;;;26.07;98.55
30554;BME280;17335;50.720;7.452;2023-06-10T06:16:24;99090.28;;;26.04;100.00
30554;BME280;17335;50.720;7.452;2023-06-10T06:18:51;99090.28;;;26.04;96.02
30554;BME280;17335;50.720;7.452;2023-06-10T06:21:17;99092.38;;;25.97;90.50
30554;BME280;17335;50.720;7.452;2023-06-10T06:23:44;99087.56;;;25.70;96.90
30554;BME280;17335;50.720;7.452;2023-06-10T06:26:11;99098.13;;;25.44;98.21
30554;BME280;17335;50.720;7.452;2023-06-10T06:28:37;99092.72;;;25.21;92.31
30554;BME280;17335;50.720;7.452;2023-06-10T06:31:04;99089.94;;;24.75;92.94
30554;BME280;17335;50.720;7.452;2023-06-10T06:33:30;99095.19;;;24.77;97.60
30554;BME280;17335;50.720;7.452;2023-06-10T06:35:59;99084.91;;;24.72;89.85
30554;BME280;17335;50.720;7.452;2023-06-10T06:38:26;99099.41;;;24.44;95.81
30554;BME280;17335;50.720;7.452;2023-06-10T06:40:53;99098.47;;;24.38;94.29
30554;BME280;17335;50.720;7.452;2023-06-10T06:43:20;99104.34;;;24.18;91.08
30554;BME280;17335;50.720;7.452;2023-06-10T06:45:47;99103.41;;;24.12;95.92
30554;BME280;17335;50.720;7.452;2023-06-10T06:48:13;99104.34;;;24.06;96.33
30554;BME280;17335;50.720;7.452;2023-06-10T06:50:40;99103.03;;;24.09;98.04
30554;BME280;17335;50.720;7.452;2023-06-10T06:53:07;99102.41;;;23.71;92.10
30554;BME280;17335;50.720;7.452;2023-06-10T06:55:34;99105.03;;;23.78;87.73
30554;BME280;17335;50.720;7.452;2023-06-10T06:58:01;99104.47;;;24.00;87.55
30554;BME280;17335;50.720;7.452;2023-06-10T07:00:31;99110.69;;;24.07;96.46
30554;BME280;17335;50.720;7.452;2023-06-10T07:02:58;99108.41;;;24.15;90.59
30554;BME280;17335;50.720;7.452;2023-06-10T07:05:25;99107.06;;;24.18;90.50
30554;BME280;17335;50.720;7.452;2023-06-10T07:07:54;99116.59;;;24.27;99.71
30554;BME280;17335;50.720;7.452;2023-06-10T07:10:25;99110.28;;;24.27;83.75
30554;BME280;17335;50.720;7.452;2023-06-10T07:12:52;99106.84;;;24.31;84.80
30554;BME280;17335;50.720;7.452;2023-06-10T07:15:19;99109.69;;;24.37;86.73
30554;BME280;17335;50.720;7.452;2023-06-10T07:17:45;99113.03;;;24.39;97.78
30554;BME280;17335;50.720;7.452;2023-06-10T07:20:12;99104.56;;;24.28;96.01
30554;BME280;17335;50.720;7.452;2023-06-10T07:22:41;99113.16;;;24.20;91.87
30554;BME280;17335;50.720;7.452;2023-06-10T07:25:08;99109.00;;;24.06;92.28
30554;BME280;17335;50.720;7.452;2023-06-10T07:27:35;99116.59;;;23.80;94.92
30554;BME280;17335;50.720;7.452;2023-06-10T07:30:05;99119.84;;;23.89;100.00
30554;BME280;17335;50.720;7.452;2023-06-10T07:32:34;99115.13;;;23.77;100.00
30554;BME280;17335;50.720;7.452;2023-06-10T07:35:01;99115.50;;;23.69;99.22
30554;BME280;17335;50.720;7.452;2023-06-10T07:37:27;99116.94;;;23.72;96.51
30554;BME280;17335;50.720;7.452;2023-06-10T07:39:54;99118.41;;;23.86;97.54
30554;BME280;17335;50.720;7.452;2023-06-10T07:42:21;99124.28;;;24.02;97.21
30554;BME280;17335;50.720;7.452;2023-06-10T07:44:48;99110.66;;;24.19;100.00
30554;BME280;17335;50.720;7.452;2023-06-10T07:47:14;99116.38;;;24.17;98.54
30554;BME280;17335;50.720;7.452;2023-06-10T07:49:41;99128.06;;;24.24;95.99
30554;BME280;17335;50.720;7.452;2023-06-10T07:52:08;99127.56;;;24.27;96.70
30554;BME280;17335;50.720;7.452;2023-06-10T07:54:34;99120.06;;;24.34;93.59
30554;BME280;17335;50.720;7.452;2023-06-10T07:57:01;99121.13;;;24.33;97.79
30554;BME280;17335;50.720;7.452;2023-06-10T07:59:27;99116.13;;;24.30;92.51
30554;BME280;17335;50.720;7.452;2023-06-10T08:01:54;99121.38;;;24.20;94.82
30554;BME280;17335;50.720;7.452;2023-06-10T08:04:21;99115.88;;;24.32;98.15
30554;BME280;17335;50.720;7.452;2023-06-10T08:06:48;99118.84;;;24.42;93.95
30554;BME280;17335;50.720;7.452;2023-06-10T08:09:14;99126.47;;;24.52;94.08
30554;BME280;17335;50.720;7.452;2023-06-10T08:11:41;99123.41;;;24.60;91.84
30554;BME280;17335;50.720;7.452;2023-06-10T08:14:08;99121.84;;;24.64;97.09
30554;BME280;17335;50.720;7.452;2023-06-10T08:16:35;99125.97;;;24.79;97.15
30554;BME280;17335;50.720;7.452;2023-06-10T08:19:01;99124.38;;;24.95;95.84
30554;BME280;17335;50.720;7.452;2023-06-10T08:21:27;99126.78;;;24.91;93.58
30554;BME280;17335;50.720;7.452;2023-06-10T08:23:55;99126.25;;;24.94;95.71
30554;BME280;17335;50.720;7.452;2023-06-10T08:26:22;99131.28;;;24.97;98.56
30554;BME280;17335;50.720;7.452;2023-06-10T08:28:48;99132.06;;;24.81;92.59
30554;BME280;17335;50.720;7.452;2023-06-10T08:31:15;99130.00;;;24.88;100.00
30554;BME280;17335;50.720;7.452;2023-06-10T08:33:42;99134.91;;;24.86;97.41
30554;BME280;17335;50.720;7.452;2023-06-10T08:36:09;99126.56;;;25.09;98.85
30554;BME280;17335;50.720;7.452;2023-06-10T08:38:35;99128.44;;;25.21;100.00
30554;BME280;17335;50.720;7.452;2023-06-10T08:41:04;99129.03;;;25.23;95.13
30554;BME280;17335;50.720;7.452;2023-06-10T08:46:00;99118.75;;;25.30;95.90
30554;BME280;17335;50.720;7.452;2023-06-10T08:48:32;99124.03;;;25.49;94.07
30554;BME280;17335;50.720;7.452;2023-06-10T08:51:03;99123.53;;;25.52;95.48
30554;BME280;17335;50.720;7.452;2023-06-10T08:53:33;99124.03;;;25.66;91.21
30554;BME280;17335;50.720;7.452;2023-06-10T08:56:04;99125.09;;;25.64;88.57
30554;BME280;17335;50.720;7.452;2023-06-10T08:58:32;99114.94;;;25.82;89.42
30554;BME280;17335;50.720;7.452;2023-06-10T09:01:08;99119.88;;;25.80;86.39
30554;BME280;17335;50.720;7.452;2023-06-10T09:03:37;99119.66;;;25.98;90.36
30554;BME280;17335;50.720;7.452;2023-06-10T09:06:05;99117.19;;;26.19;95.71
30554;BME280;17335;50.720;7.452;2023-06-10T09:08:33;99121.13;;;26.45;95.97
30554;BME280;17335;50.720;7.452;2023-06-10T09:11:01;99119.94;;;26.58;86.27
30554;BME280;17335;50.720;7.452;2023-06-10T09:13:28;99111.59;;;26.31;77.36
30554;BME280;17335;50.720;7.452;2023-06-10T09:15:55;99117.25;;;26.41;83.46
30554;BME280;17335;50.720;7.452;2023-06-10T09:18:24;99121.28;;;26.55;82.32
30554;BME280;17335;50.720;7.452;2023-06-10T09:20:50;99108.00;;;26.69;81.34
30554;BME280;17335;50.720;7.452;2023-06-10T09:23:17;99109.41;;;26.72;73.17
30554;BME280;17335;50.720;7.452;2023-06-10T09:25:43;99102.41;;;26.86;75.15
30554;BME280;17335;50.720;7.452;2023-06-10T09:28:14;99108.47;;;27.10;78.96
30554;BME280;17335;50.720;7.452;2023-06-10T09:30:41;99101.81;;;27.06;72.66
30554;BME280;17335;50.720;7.452;2023-06-10T09:33:13;99099.53;;;27.25;66.57
30554;BME280;17335;50.720;7.452;2023-06-10T09:35:48;99097.22;;;27.17;63.31
30554;BME280;17335;50.720;7.452;2023-06-10T09:38:22;99092.78;;;27.38;65.84
30554;BME280;17335;50.720;7.452;2023-06-10T09:40:53;99088.72;;;27.46;64.45
30554;BME280;17335;50.720;7.452;2023-06-10T09:43:20;99082.66;;;27.81;68.21
30554;BME280;17335;50.720;7.452;2023-06-10T09:45:48;99094.47;;;27.72;57.79
30554;BME280;17335;50.720;7.452;2023-06-10T09:48:15;99080.19;;;27.85;59.70
30554;BME280;17335;50.720;7.452;2023-06-10T09:50:46;99089.56;;;27.84;58.44
30554;BME280;17335;50.720;7.452;2023-06-10T09:53:12;99089.41;;;27.96;58.33
30554;BME280;17335;50.720;7.452;2023-06-10T09:55:40;99088.59;;;28.00;55.78
30554;BME280;17335;50.720;7.452;2023-06-10T09:58:08;99082.56;;;28.03;59.54
30554;BME280;17335;50.720;7.452;2023-06-10T10:00:34;99082.69;;;28.24;57.82
30554;BME280;17335;50.720;7.452;2023-06-10T10:03:01;99072.28;;;28.41;55.90
30554;BME280;17335;50.720;7.452;2023-06-10T10:05:28;99073.53;;;28.66;54.55
30554;BME280;17335;50.720;7.452;2023-06-10T10:07:56;99083.03;;;28.38;53.71
30554;BME280;17335;50.720;7.452;2023-06-10T10:10:23;99075.31;;;28.40;55.42
30554;BME280;17335;50.720;7.452;2023-06-10T10:12:56;99075.84;;;28.32;50.85
30554;BME280;17335;50.720;7.452;2023-06-10T10:15:24;99085.72;;;27.85;54.13
30554;BME280;17335;50.720;7.452;2023-06-10T10:18:09;99085.91;;;27.73;51.50
30554;BME280;17335;50.720;7.452;2023-06-10T10:20:45;99084.75;;;28.01;56.52
30554;BME280;17335;50.720;7.452;2023-06-10T10:23:14;99077.16;;;28.24;52.08
30554;BME280;17335;50.720;7.452;2023-06-10T10:25:49;99078.19;;;28.08;48.27
30554;BME280;17335;50.720;7.452;2023-06-10T10:28:19;99075.13;;;28.57;49.08
30554;BME280;17335;50.720;7.452;2023-06-10T10:30:53;99071.44;;;29.09;46.81
30554;BME280;17335;50.720;7.452;2023-06-10T10:36:24;99086.72;;;29.84;41.04
30554;BME280;17335;50.720;7.452;2023-06-10T10:38:51;99077.59;;;29.58;43.53
30554;BME280;17335;50.720;7.452;2023-06-10T10:41:19;99082.84;;;30.10;42.29
30554;BME280;17335;50.720;7.452;2023-06-10T10:43:47;99080.38;;;29.83;40.77
30554;BME280;17335;50.720;7.452;2023-06-10T10:46:16;99075.34;;;30.11;42.29
30554;BME280;17335;50.720;7.452;2023-06-10T10:48:44;99066.13;;;30.46;43.03
30554;BME280;17335;50.720;7.452;2023-06-10T10:51:15;99069.75;;;30.42;39.70
30554;BME280;17335;50.720;7.452;2023-06-10T10:53:41;99068.63;;;30.43;40.19
30554;BME280;17335;50.720;7.452;2023-06-10T10:56:15;99070.47;;;30.63;38.58
30554;BME280;17335;50.720;7.452;2023-06-10T10:59:03;99067.31;;;30.90;40.48
30554;BME280;17335;50.720;7.452;2023-06-10T11:01:43;99068.03;;;30.51;38.88
30554;BME280;17335;50.720;7.452;2023-06-10T11:04:12;99063.56;;;30.65;40.12
30554;BME280;17335;50.720;7.452;2023-06-10T11:06:39;99060.81;;;30.60;39.42
30554;BME280;17335;50.720;7.452;2023-06-10T11:09:26;99059.88;;;30.80;37.30
30554;BME280;17335;50.720;7.452;2023-06-10T11:11:57;99063.44;;;30.96;40.09
30554;BME280;17335;50.720;7.452;2023-06-10T11:14:29;99062.25;;;31.02;37.63
30554;BME280;17335;50.720;7.452;2023-06-10T11:16:59;99059.50;;;30.42;36.57
30554;BME280;17335;50.720;7.452;2023-06-10T11:19:34;99052.66;;;30.14;39.18
30554;BME280;17335;50.720;7.452;2023-06-10T11:22:05;99051.25;;;30.06;38.42
30554;BME280;17335;50.720;7.452;2023-06-10T11:24:33;99055.66;;;30.28;37.87
30554;BME280;17335;50.720;7.452;2023-06-10T11:29:55;99057.06;;;30.15;37.06
30554;BME280;17335;50.720;7.452;2023-06-10T11:32:28;99051.75;;;30.24;36.16
30554;BME280;17335;50.720;7.452;2023-06-10T11:34:56;99058.78;;;29.80;36.60
30554;BME280;17335;50.720;7.452;2023-06-10T11:37:22;99049.09;;;29.83;36.26
30554;BME280;17335;50.720;7.452;2023-06-10T11:39:56;99061.00;;;29.73;36.30
30554;BME280;17335;50.720;7.452;2023-06-10T11:42:22;99043.28;;;29.69;36.28
30554;BME280;17335;50.720;7.452;2023-06-10T11:44:53;99051.84;;;29.83;38.59
30554;BME280;17335;50.720;7.452;2023-06-10T11:47:20;99048.81;;;29.84;35.72
30554;BME280;17335;50.720;7.452;2023-06-10T11:49:56;99042.41;;;30.04;35.85
30554;BME280;17335;50.720;7.452;2023-06-10T11:52:26;99036.22;;;30.43;35.58
30554;BME280;17335;50.720;7.452;2023-06-10T11:54:54;99038.25;;;30.17;35.97
30554;BME280;17335;50.720;7.452;2023-06-10T11:57:21;99041.13;;;30.67;35.77
30554;BME280;17335;50.720;7.452;2023-06-10T11:59:48;99040.84;;;31.13;36.29
30554;BME280;17335;50.720;7.452;2023-06-10T12:02:15;99034.78;;;31.06;37.75
30554;BME280;17335;50.720;7.452;2023-06-10T12:04:42;99033.19;;;30.35;35.78
30554;BME280;17335;50.720;7.452;2023-06-10T12:07:17;99033.75;;;30.37;36.21
30554;BME280;17335;50.720;7.452;2023-06-10T12:09:43;99030.69;;;30.33;36.46
30554;BME280;17335;50.720;7.452;2023-06-10T12:12:10;99031.38;;;30.70;36.92
30554;BME280;17335;50.720;7.452;2023-06-10T12:14:57;99031.94;;;29.81;36.41
30554;BME280;17335;50.720;7.452;2023-06-10T12:19:59;99012.59;;;29.55;38.78
30554;BME280;17335;50.720;7.452;2023-06-10T12:22:26;99024.13;;;30.03;37.10
30554;BME280;17335;50.720;7.452;2023-06-10T12:25:00;99022.22;;;30.04;38.23
30554;BME280;17335;50.720;7.452;2023-06-10T12:27:29;99026.69;;;29.43;37.44
30554;BME280;17335;50.720;7.452;2023-06-10T12:29:57;99011.72;;;29.96;39.17
30554;BME280;17335;50.720;7.452;2023-06-10T12:32:43;99014.91;;;30.39;38.19
30554;BME280;17335;50.720;7.452;2023-06-10T12:35:11;99016.69;;;30.74;38.94
30554;BME280;17335;50.720;7.452;2023-06-10T12:37:40;99013.09;;;30.69;36.27
30554;BME280;17335;50.720;7.452;2023-06-10T12:40:09;99025.47;;;30.37;35.49
30554;BME280;17335;50.720;7.452;2023-06-10T12:42:38;99017.19;;;30.81;37.37
30554;BME280;17335;50.720;7.452;2023-06-10T12:45:05;99023.03;;;30.80;37.21
30554;BME280;17335;50.720;7.452;2023-06-10T12:47:36;99018.34;;;31.20;37.04
30554;BME280;17335;50.720;7.452;2023-06-10T12:50:07;99015.63;;;31.44;37.44
30554;BME280;17335;50.720;7.452;2023-06-10T12:52:34;99017.34;;;31.74;35.75
30554;BME280;17335;50.720;7.452;2023-06-10T12:55:01;99017.97;;;31.66;36.92
30554;BME280;17335;50.720;7.452;2023-06-10T12:57:28;99011.16;;;31.19;36.53
30554;BME280;17335;50.720;7.452;2023-06-10T12:59:56;99017.22;;;31.21;37.01
30554;BME280;17335;50.720;7.452;2023-06-10T13:02:29;99024.25;;;30.53;36.38
30554;BME280;17335;50.720;7.452;2023-06-10T13:04:56;99010.75;;;30.91;36.99
30554;BME280;17335;50.720;7.452;2023-06-10T13:07:22;99006.81;;;31.37;36.85
30554;BME280;17335;50.720;7.452;2023-06-10T13:09:49;99008.00;;;31.31;36.32
30554;BME280;17335;50.720;7.452;2023-06-10T13:12:16;99003.38;;;31.21;36.79